Time;durP1;ratioP1;P1;durP2;ratioP2;P2;SDS_P1;SDS_P2;PMS_P1;PMS_P2;Temp;Humidity;BMP_temperature;BMP_pressure;BME280_temperature;BME280_humidity;BME280_pressure;Samples;Min_cycle;Max_cycle;Signal;HPM_P1;HPM_P2
2022/09/10 00:02:41;;;;;;;1.80;1.02;;;;;;;14.20;100.00;100117.25;6279172;28;20045;-92
2022/09/10 00:05:45;;;;;;;1.52;0.77;;;;;;;14.18;100.00;100111.38;6271715;28;20127;-92
2022/09/10 00:08:48;;;;;;;2.40;0.90;;;;;;;14.16;100.00;100110.72;6280825;28;20041;-92
2022/09/10 00:11:50;;;;;;;3.10;0.90;;;;;;;14.18;100.00;100117.38;6283622;28;20075;-92
2022/09/10 00:14:53;;;;;;;1.38;0.60;;;;;;;14.17;100.00;100107.16;6279247;28;20120;-92
2022/09/10 00:17:55;;;;;;;0.88;0.70;;;;;;;14.17;100.00;100101.94;6282913;28;20040;-92
2022/09/10 00:20:58;;;;;;;1.50;0.73;;;;;;;14.17;100.00;100105.34;6280383;28;20129;-92
2022/09/10 00:24:01;;;;;;;2.67;0.70;;;;;;;14.15;100.00;100094.28;6277622;28;20051;-92
2022/09/10 00:27:03;;;;;;;1.30;0.70;;;;;;;14.10;100.00;100104.34;6271842;28;20207;-92
2022/09/10 00:30:06;;;;;;;1.67;0.88;;;;;;;14.08;100.00;100097.66;6263666;28;20052;-91
2022/09/10 00:33:08;;;;;;;3.80;0.80;;;;;;;14.04;100.00;100101.56;6281961;28;20579;-91
2022/09/10 00:36:28;;;;;;;1.08;0.70;;;;;;;14.03;100.00;100098.13;6281546;28;20060;-91
2022/09/10 00:39:29;;;;;;;1.27;0.60;;;;;;;14.08;100.00;100098.47;6281622;28;20598;-92
2022/09/10 00:42:31;;;;;;;1.67;0.68;;;;;;;14.08;100.00;100098.47;6282510;28;20045;-91
2022/09/10 00:45:34;;;;;;;2.45;0.80;;;;;;;14.07;100.00;100094.25;6282615;28;20068;-91
2022/09/10 00:48:36;;;;;;;1.23;0.68;;;;;;;14.07;100.00;100104.66;6261634;28;20041;-91
2022/09/10 00:51:39;;;;;;;1.15;0.80;;;;;;;14.07;100.00;100101.25;6284264;28;20041;-91
2022/09/10 00:54:42;;;;;;;1.58;0.80;;;;;;;14.14;100.00;100107.47;6277389;28;20134;-91
2022/09/10 00:57:48;;;;;;;3.28;0.85;;;;;;;14.08;100.00;100103.66;6264270;28;20435;-92
2022/09/10 01:00:55;;;;;;;2.67;0.80;;;;;;;14.13;100.00;100106.63;6264088;28;20045;-90
2022/09/10 01:03:57;;;;;;;2.63;1.00;;;;;;;14.15;100.00;100091.69;6277885;28;20123;-91
2022/09/10 01:07:01;;;;;;;1.92;0.80;;;;;;;14.14;100.00;100095.25;6274725;28;20374;-91
2022/09/10 01:10:07;;;;;;;0.90;0.80;;;;;;;14.15;100.00;100083.06;6280422;28;20051;-91
2022/09/10 01:13:44;;;;;;;2.40;0.95;;;;;;;14.05;100.00;100090.16;6284715;28;20044;-90
2022/09/10 01:17:12;;;;;;;2.13;0.90;;;;;;;14.03;100.00;100090.31;6280992;28;20055;-91
2022/09/10 01:20:29;;;;;;;2.20;0.98;;;;;;;14.16;100.00;100095.09;6278163;28;20041;-90
2022/09/10 01:24:03;;;;;;;2.33;0.90;;;;;;;14.09;100.00;100104.50;6279862;28;20040;-91
2022/09/10 01:27:08;;;;;;;2.88;1.10;;;;;;;14.03;100.00;100108.53;6276296;28;20052;-90
2022/09/10 01:30:26;;;;;;;2.05;0.90;;;;;;;14.03;100.00;100107.72;6271640;28;20049;-90
2022/09/10 01:33:36;;;;;;;3.15;1.45;;;;;;;14.02;100.00;100104.31;6279760;28;20056;-90
2022/09/10 01:36:46;;;;;;;1.92;1.10;;;;;;;14.02;100.00;100100.88;6282825;28;20044;-90
2022/09/10 01:39:52;;;;;;;0.98;0.88;;;;;;;14.00;100.00;100101.84;6271968;28;20333;-90
2022/09/10 01:43:03;;;;;;;3.15;0.98;;;;;;;13.99;100.00;100102.81;6280977;28;20131;-90
2022/09/10 01:46:05;;;;;;;;;;;;;;;13.99;100.00;100102.00;6274803;28;20176;-90
2022/09/10 01:49:45;;;;;;;2.45;0.98;;;;;;;13.99;100.00;100102.81;6292619;28;19928;-90
2022/09/10 01:52:47;;;;;;;1.95;1.15;;;;;;;13.97;100.00;100109.16;6282151;28;20413;-90
2022/09/10 01:55:54;;;;;;;2.75;1.15;;;;;;;13.97;100.00;100109.16;6284518;28;20032;-89
2022/09/10 01:59:02;;;;;;;2.60;1.10;;;;;;;13.95;100.00;100108.47;6275486;28;20052;-90
2022/09/10 02:02:21;;;;;;;2.67;1.23;;;;;;;13.95;100.00;100111.91;6274981;28;20504;-90
2022/09/10 02:05:26;;;;;;;3.00;1.20;;;;;;;13.95;100.00;100105.88;6284188;28;20052;-89
2022/09/10 02:08:36;;;;;;;1.50;1.08;;;;;;;13.95;100.00;100111.91;6278286;28;20486;-90
2022/09/10 02:11:48;;;;;;;2.20;0.98;;;;;;;13.95;100.00;100113.69;6276594;28;20040;-89
2022/09/10 02:15:01;;;;;;;3.50;1.20;;;;;;;13.96;100.00;100116.16;6286106;28;20105;-90
2022/09/10 02:18:24;;;;;;;1.70;1.00;;;;;;;13.98;100.00;100119.38;6276955;28;20056;-90
2022/09/10 02:21:27;;;;;;;4.40;1.05;;;;;;;14.02;100.00;100121.72;6277665;28;20503;-90
2022/09/10 02:24:29;;;;;;;3.47;1.20;;;;;;;14.07;100.00;100120.28;6287390;28;20422;-91
2022/09/10 02:27:33;;;;;;;1.92;1.25;;;;;;;14.04;100.00;100120.59;6275755;28;20097;-90
2022/09/10 02:30:35;;;;;;;1.10;1.00;;;;;;;14.05;100.00;100124.81;6279236;28;20045;-90
2022/09/10 02:33:37;;;;;;;3.05;1.10;;;;;;;14.08;100.00;100123.69;6263397;28;20056;-90
2022/09/10 02:36:39;;;;;;;1.55;1.00;;;;;;;14.09;100.00;100128.75;6276691;28;20115;-89
2022/09/10 02:39:41;;;;;;;1.52;1.05;;;;;;;14.11;100.00;100128.56;6284339;28;20060;-90
2022/09/10 02:42:45;;;;;;;2.33;1.10;;;;;;;14.12;100.00;100138.03;6284531;28;20402;-90
2022/09/10 02:45:58;;;;;;;3.58;1.10;;;;;;;14.15;100.00;100137.72;6279638;28;20040;-90
2022/09/10 02:48:59;;;;;;;2.35;1.10;;;;;;;14.15;100.00;100129.91;6278555;28;20800;-89
2022/09/10 02:52:05;;;;;;;2.33;1.00;;;;;;;14.16;100.00;100134.97;6284809;28;20041;-89
2022/09/10 02:55:10;;;;;;;1.25;1.15;;;;;;;14.17;100.00;100130.56;6276130;28;20048;-90
2022/09/10 02:58:13;;;;;;;1.88;1.27;;;;;;;14.16;100.00;100131.53;6279753;28;20059;-89
2022/09/10 03:01:18;;;;;;;2.30;1.30;;;;;;;14.18;100.00;100134.81;6283785;28;20101;-90
2022/09/10 03:04:27;;;;;;;2.78;0.95;;;;;;;14.18;100.00;100133.00;6281163;28;20188;-89
2022/09/10 03:07:31;;;;;;;2.40;1.20;;;;;;;14.20;100.00;100140.69;6286948;28;20081;-89
2022/09/10 03:10:32;;;;;;;2.92;1.38;;;;;;;14.22;100.00;100142.16;6285122;28;20483;-89
2022/09/10 03:13:34;;;;;;;2.75;1.40;;;;;;;14.24;100.00;100152.44;6281180;28;20060;-90
2022/09/10 03:16:36;;;;;;;2.88;1.30;;;;;;;14.20;100.00;100149.28;6283066;28;20044;-91
2022/09/10 03:19:40;;;;;;;7.95;1.60;;;;;;;14.12;100.00;100148.44;6279887;28;20052;-89
2022/09/10 03:22:41;;;;;;;4.60;1.75;;;;;;;14.04;100.00;100157.03;6269320;28;20052;-90
2022/09/10 03:25:47;;;;;;;1.40;1.30;;;;;;;14.00;100.00;100143.47;6285367;28;20056;-91
2022/09/10 03:28:56;;;;;;;6.05;2.47;;;;;;;13.98;100.00;100145.41;6285494;28;20433;-91
2022/09/10 03:32:00;;;;;;;1.90;1.58;;;;;;;13.96;100.00;100141.31;6289691;28;20045;-91
2022/09/10 03:35:02;;;;;;;1.83;1.40;;;;;;;13.90;100.00;100142.75;6294931;28;20052;-91
2022/09/10 03:38:05;;;;;;;5.32;1.77;;;;;;;13.85;100.00;100142.41;6277970;28;20572;-91
2022/09/10 03:41:07;;;;;;;2.60;1.92;;;;;;;13.84;100.00;100147.75;6282093;28;20037;-92
2022/09/10 03:44:09;;;;;;;7.38;2.55;;;;;;;13.82;100.00;100147.09;6281070;28;20049;-91
2022/09/10 03:47:13;;;;;;;6.75;1.90;;;;;;;13.84;100.00;100153.78;6275041;28;20117;-91
2022/09/10 03:50:15;;;;;;;3.78;2.10;;;;;;;13.86;100.00;100151.84;6268326;28;20045;-92
2022/09/10 03:53:19;;;;;;;2.92;1.85;;;;;;;13.88;100.00;100144.69;6248502;28;20060;-91
2022/09/10 03:56:21;;;;;;;3.30;1.70;;;;;;;13.89;100.00;100151.56;6278109;28;20052;-90
2022/09/10 03:59:23;;;;;;;5.25;1.77;;;;;;;13.89;100.00;100154.16;6279417;28;20048;-90
2022/09/10 04:02:29;;;;;;;5.75;1.90;;;;;;;13.87;100.00;100150.88;6280029;28;20085;-90
2022/09/10 04:05:31;;;;;;;3.03;1.83;;;;;;;13.90;100.00;100154.97;6271864;28;20044;-90
2022/09/10 04:08:33;;;;;;;5.03;2.00;;;;;;;13.86;100.00;100151.84;6280798;28;20029;-90
2022/09/10 04:11:36;;;;;;;2.50;1.90;;;;;;;13.86;100.00;100148.41;6267372;28;20532;-91
2022/09/10 04:14:38;;;;;;;5.03;1.98;;;;;;;13.85;100.00;100146.78;6267058;28;20045;-90
2022/09/10 04:17:40;;;;;;;2.67;2.03;;;;;;;13.84;100.00;100148.59;6276378;28;20071;-90
2022/09/10 04:20:45;;;;;;;2.63;1.90;;;;;;;13.83;100.00;100153.94;6261376;28;20076;-90
2022/09/10 04:23:53;;;;;;;6.05;1.92;;;;;;;13.78;100.00;100143.97;6294694;28;20383;-90
2022/09/10 04:26:56;;;;;;;2.80;1.70;;;;;;;13.74;100.00;100153.06;6267149;28;20090;-90
2022/09/10 04:29:58;;;;;;;2.45;1.92;;;;;;;13.72;100.00;100147.19;6277862;28;20049;-90
2022/09/10 04:33:01;;;;;;;2.88;1.70;;;;;;;13.65;100.00;100152.16;6261701;28;20539;-90
2022/09/10 04:36:07;;;;;;;5.20;2.00;;;;;;;13.64;100.00;100150.56;6279616;28;20059;-91
2022/09/10 04:39:13;;;;;;;2.78;2.00;;;;;;;13.63;100.00;100148.91;6284975;28;20139;-91
2022/09/10 04:42:17;;;;;;;5.18;2.05;;;;;;;13.57;100.00;100152.94;6256364;28;20041;-91
2022/09/10 04:45:21;;;;;;;3.47;2.00;;;;;;;13.53;100.00;100145.56;6281208;28;20044;-91
2022/09/10 04:48:24;;;;;;;2.97;1.70;;;;;;;13.50;100.00;100156.28;6268212;28;20048;-91
2022/09/10 04:51:27;;;;;;;2.75;1.90;;;;;;;13.44;100.00;100152.50;6259309;28;20419;-91
2022/09/10 04:54:32;;;;;;;2.40;1.50;;;;;;;13.40;100.00;100169.34;6268918;28;20076;-91
2022/09/10 04:57:34;;;;;;;2.88;2.00;;;;;;;13.37;100.00;100164.44;6280164;28;20045;-91
2022/09/10 05:00:38;;;;;;;4.50;2.08;;;;;;;13.40;100.00;100169.34;6279609;28;20082;-91
2022/09/10 05:03:40;;;;;;;3.38;1.95;;;;;;;13.40;100.00;100171.94;6283967;28;20067;-92
2022/09/10 05:06:43;;;;;;;3.05;1.83;;;;;;;13.43;100.00;100171.66;6267333;28;20154;-92
2022/09/10 05:09:45;;;;;;;5.47;1.90;;;;;;;13.52;100.00;100173.34;6280043;28;20506;-92
2022/09/10 05:12:50;;;;;;;3.22;2.35;;;;;;;13.63;100.00;100174.09;6279030;28;20401;-92
2022/09/10 05:15:53;;;;;;;3.65;1.98;;;;;;;13.70;100.00;100175.94;6285716;28;20410;-92
2022/09/10 05:18:57;;;;;;;4.85;1.90;;;;;;;13.77;100.00;100173.56;6278275;28;20505;-92
2022/09/10 05:22:00;;;;;;;2.95;1.90;;;;;;;13.80;100.00;100170.66;6287494;28;20045;-91
2022/09/10 05:25:05;;;;;;;3.17;2.33;;;;;;;13.86;100.00;100166.63;6273013;28;20045;-92
2022/09/10 05:28:08;;;;;;;3.75;2.38;;;;;;;13.91;100.00;100173.03;6282039;28;20557;-92
2022/09/10 05:31:11;;;;;;;4.30;1.83;;;;;;;13.95;100.00;100176.94;6282184;28;20044;-92
2022/09/10 05:34:15;;;;;;;3.63;2.22;;;;;;;14.01;100.00;100175.50;6282499;28;20044;-91
2022/09/10 05:37:17;;;;;;;4.32;2.25;;;;;;;14.06;100.00;100177.66;6258743;28;20048;-91
2022/09/10 05:40:21;;;;;;;3.25;2.00;;;;;;;14.09;100.00;100177.38;6273187;28;20037;-91
2022/09/10 05:43:26;;;;;;;2.20;2.00;;;;;;;14.18;100.00;100176.44;6278135;28;20053;-91
2022/09/10 05:46:29;;;;;;;3.17;2.03;;;;;;;14.22;100.00;100183.00;6269411;28;20494;-91
2022/09/10 05:49:36;;;;;;;5.03;2.10;;;;;;;14.31;100.00;100182.09;6272250;28;20040;-91
2022/09/10 05:52:39;;;;;;;4.35;2.28;;;;;;;14.38;100.00;100183.09;6278548;28;20502;-91
2022/09/10 05:55:43;;;;;;;3.83;1.98;;;;;;;14.45;100.00;100180.69;6280018;28;20461;-91
2022/09/10 05:58:45;;;;;;;2.63;2.13;;;;;;;14.52;100.00;100180.88;6282323;28;20458;-91
2022/09/10 06:01:50;;;;;;;6.05;2.60;;;;;;;14.59;100.00;100171.50;6284417;28;20129;-91
2022/09/10 06:04:53;;;;;;;3.05;2.13;;;;;;;14.65;100.00;100174.28;6293887;28;20622;-91
2022/09/10 06:07:57;;;;;;;3.90;1.75;;;;;;;14.64;100.00;100184.88;6286537;28;20139;-91
2022/09/10 06:11:04;;;;;;;2.20;2.00;;;;;;;14.58;100.00;100175.06;6275195;28;20053;-92
2022/09/10 06:14:13;;;;;;;4.45;2.00;;;;;;;14.51;100.00;100176.63;6283229;28;20231;-91
2022/09/10 06:17:18;;;;;;;4.25;2.00;;;;;;;14.42;100.00;100181.00;6293666;28;20490;-90
2022/09/10 06:20:22;;;;;;;4.75;1.88;;;;;;;14.33;100.00;100171.50;6278862;28;20055;-91
2022/09/10 06:23:25;;;;;;;2.65;1.80;;;;;;;14.25;100.00;100171.47;6280126;28;20072;-91
2022/09/10 06:26:27;;;;;;;2.72;1.92;;;;;;;14.18;100.00;100169.44;6276612;28;20071;-91
2022/09/10 06:29:35;;;;;;;2.58;1.88;;;;;;;14.14;100.00;100172.53;6286198;28;20194;-91
2022/09/10 06:32:38;;;;;;;3.85;1.92;;;;;;;14.10;100.00;100179.00;6286420;28;20094;-91
2022/09/10 06:35:42;;;;;;;3.22;1.88;;;;;;;14.07;100.00;100179.31;6279970;28;20048;-91
2022/09/10 06:38:44;;;;;;;3.30;2.00;;;;;;;14.03;100.00;100180.59;6296737;28;20045;-91
2022/09/10 06:41:47;;;;;;;1.70;1.60;;;;;;;14.01;100.00;100180.72;6281478;28;20052;-91
2022/09/10 06:45:22;;;;;;;4.75;2.15;;;;;;;14.03;100.00;100191.00;6284692;28;20513;-91
2022/09/10 06:48:39;;;;;;;4.28;1.80;;;;;;;14.03;100.00;100188.38;6259777;28;20597;-91
2022/09/10 06:51:49;;;;;;;2.83;2.30;;;;;;;14.07;100.00;100192.34;6256989;28;20457;-91
2022/09/10 06:54:51;;;;;;;3.00;2.10;;;;;;;14.09;100.00;100190.41;6261921;28;20045;-91
2022/09/10 06:58:04;;;;;;;3.65;1.90;;;;;;;14.14;100.00;100190.75;6265991;28;20072;-91
2022/09/10 07:01:17;;;;;;;5.07;2.38;;;;;;;14.13;100.00;100183.91;6248889;28;20051;-91
2022/09/10 07:04:26;;;;;;;3.75;1.70;;;;;;;14.09;100.00;100185.19;6262326;28;20059;-90
2022/09/10 07:07:31;;;;;;;2.75;1.88;;;;;;;14.07;100.00;100182.72;6280666;28;20143;-91
2022/09/10 07:10:33;;;;;;;4.85;1.98;;;;;;;14.06;100.00;100190.69;6254946;28;20040;-91
2022/09/10 07:13:36;;;;;;;2.63;2.00;;;;;;;14.07;100.00;100202.75;6261819;28;20487;-91
2022/09/10 07:16:40;;;;;;;5.47;2.00;;;;;;;14.06;100.00;100201.09;6263298;28;20048;-91
2022/09/10 07:19:42;;;;;;;3.17;2.03;;;;;;;14.11;100.00;100214.47;6261148;28;20383;-91
2022/09/10 07:22:55;;;;;;;2.92;1.85;;;;;;;14.16;100.00;100207.00;6279437;28;20498;-91
2022/09/10 07:26:10;;;;;;;1.73;1.58;;;;;;;14.22;100.00;100212.44;6283848;28;20499;-91
2022/09/10 07:29:17;;;;;;;2.42;1.83;;;;;;;14.25;100.00;100215.72;6276280;28;20056;-91
2022/09/10 07:32:19;;;;;;;3.58;2.05;;;;;;;14.30;100.00;100216.06;6278988;28;20044;-90
2022/09/10 07:35:27;;;;;;;2.33;2.00;;;;;;;14.35;100.00;100219.03;6270008;28;20090;-91
2022/09/10 07:38:29;;;;;;;2.55;1.73;;;;;;;14.38;100.00;100218.72;6283539;28;20900;-91
2022/09/10 07:41:33;;;;;;;2.20;1.75;;;;;;;14.41;100.00;100219.25;6300179;28;20078;-91
2022/09/10 07:44:38;;;;;;;3.10;1.60;;;;;;;14.47;100.00;100227.41;6277605;28;20049;-91
2022/09/10 07:47:41;;;;;;;2.83;1.80;;;;;;;14.56;100.00;100229.13;6261231;28;20066;-90
2022/09/10 07:50:44;;;;;;;2.25;1.75;;;;;;;14.53;100.00;100237.19;6275028;28;20049;-91
2022/09/10 07:53:58;;;;;;;2.20;1.60;;;;;;;14.52;100.00;100241.59;6261793;28;20056;-91
2022/09/10 07:57:27;;;;;;;3.67;1.70;;;;;;;14.53;100.00;100245.00;6277709;28;20044;-91
2022/09/10 08:00:29;;;;;;;5.57;1.90;;;;;;;14.54;100.00;100238.88;6298606;28;20072;-91
2022/09/10 08:03:37;;;;;;;2.28;1.48;;;;;;;14.61;100.00;100250.31;6276732;28;20533;-91
2022/09/10 08:06:39;;;;;;;4.45;2.40;;;;;;;14.97;100.00;100250.16;6277668;28;20799;-91
2022/09/10 08:09:42;;;;;;;2.90;1.80;;;;;;;15.55;100.00;100256.38;6276488;28;20047;-91
2022/09/10 08:12:48;;;;;;;4.10;2.03;;;;;;;16.03;100.00;100247.81;6292170;28;20517;-90
2022/09/10 08:15:50;;;;;;;3.20;2.10;;;;;;;16.35;100.00;100254.00;6274321;28;20044;-91
2022/09/10 08:18:56;;;;;;;2.42;1.70;;;;;;;16.61;100.00;100260.81;6276587;28;20067;-91
2022/09/10 08:21:59;;;;;;;6.15;1.70;;;;;;;16.69;100.00;100258.97;6275299;28;20667;-91
2022/09/10 08:25:06;;;;;;;1.67;1.17;;;;;;;16.69;100.00;100266.00;6266034;28;20390;-91
2022/09/10 08:28:10;;;;;;;1.58;1.30;;;;;;;16.54;100.00;100271.09;6294767;28;20039;-91
2022/09/10 08:31:12;;;;;;;1.58;1.25;;;;;;;16.29;100.00;100276.34;6295193;28;20045;-91
2022/09/10 08:34:22;;;;;;;3.92;1.40;;;;;;;16.20;100.00;100273.91;6282125;28;20055;-91
2022/09/10 08:37:32;;;;;;;2.53;1.63;;;;;;;16.22;100.00;100271.94;6270937;28;20045;-91
2022/09/10 08:40:41;;;;;;;5.93;1.90;;;;;;;16.24;100.00;100277.81;6271793;28;20295;-91
2022/09/10 08:44:09;;;;;;;1.80;1.52;;;;;;;16.17;100.00;100276.84;6266871;28;20040;-91
2022/09/10 08:47:20;;;;;;;2.58;1.33;;;;;;;16.06;100.00;100283.22;6283528;28;20166;-90
2022/09/10 08:50:45;;;;;;;7.30;2.20;;;;;;;15.99;100.00;100282.25;6290968;28;20056;-90
2022/09/10 08:54:31;;;;;;;1.88;1.50;;;;;;;16.03;100.00;100281.75;6273487;28;20143;-90
2022/09/10 08:57:58;;;;;;;2.55;1.58;;;;;;;16.27;100.00;100291.41;6268971;28;20040;-91
2022/09/10 09:01:03;;;;;;;1.67;1.30;;;;;;;16.52;100.00;100286.97;6271934;28;20446;-90
2022/09/10 09:04:21;;;;;;;1.73;1.33;;;;;;;16.72;100.00;100278.72;6277903;28;20060;-90
2022/09/10 09:07:38;;;;;;;1.48;1.20;;;;;;;16.91;100.00;100281.00;6278679;28;20079;-91
2022/09/10 09:10:59;;;;;;;3.80;1.35;;;;;;;16.98;100.00;100287.19;6283130;28;20049;-90
2022/09/10 09:14:14;;;;;;;2.47;1.40;;;;;;;17.11;100.00;100284.03;6278144;28;20084;-91
2022/09/10 09:17:41;;;;;;;2.40;1.17;;;;;;;17.38;100.00;100280.16;6290838;28;20516;-91
2022/09/10 09:21:02;;;;;;;1.40;1.10;;;;;;;17.45;100.00;100282.91;6285342;28;20045;-91
2022/09/10 09:24:28;;;;;;;2.25;1.40;;;;;;;17.68;100.00;100282.13;6281377;28;20049;-91
2022/09/10 09:27:35;;;;;;;2.42;1.40;;;;;;;17.90;100.00;100277.91;6276514;28;20045;-91
2022/09/10 09:30:48;;;;;;;1.13;1.00;;;;;;;18.18;100.00;100275.53;6278760;28;20055;-91
2022/09/10 09:34:03;;;;;;;1.58;1.10;;;;;;;18.56;100.00;100271.13;6274249;28;20079;-91
2022/09/10 09:37:28;;;;;;;2.53;0.80;;;;;;;18.99;100.00;100271.31;6272679;28;20488;-91
2022/09/10 09:40:40;;;;;;;2.08;0.90;;;;;;;19.27;100.00;100274.06;6284815;28;20446;-91
2022/09/10 09:43:51;;;;;;;2.30;1.02;;;;;;;19.34;100.00;100269.72;6279695;28;20181;-91
2022/09/10 09:46:55;;;;;;;1.67;0.90;;;;;;;19.24;100.00;100278.88;6271481;28;20399;-91
2022/09/10 09:49:58;;;;;;;2.33;1.08;;;;;;;19.24;100.00;100269.19;6282839;28;20049;-91
2022/09/10 09:52:59;;;;;;;1.88;0.98;;;;;;;19.31;100.00;100271.91;6287106;28;20417;-91
2022/09/10 09:56:14;;;;;;;1.05;0.90;;;;;;;19.29;100.00;100266.03;6265416;28;20170;-91
2022/09/10 09:59:33;;;;;;;2.50;1.02;;;;;;;19.14;100.00;100266.06;6273914;28;20391;-91
2022/09/10 10:02:35;;;;;;;0.70;0.70;;;;;;;18.93;100.00;100261.53;6270774;28;20037;-90
2022/09/10 10:05:37;;;;;;;1.05;0.80;;;;;;;18.90;100.00;100262.72;6277355;28;20043;-91
2022/09/10 10:08:44;;;;;;;1.40;0.80;;;;;;;19.06;100.00;100259.09;6276330;28;20053;-90
2022/09/10 10:11:58;;;;;;;2.50;0.80;;;;;;;19.30;100.00;100262.38;6281640;28;20044;-91
2022/09/10 10:15:01;;;;;;;1.80;0.85;;;;;;;19.57;100.00;100264.28;6283069;28;20047;-90
2022/09/10 10:18:21;;;;;;;2.08;0.93;;;;;;;19.76;100.00;100262.91;6280314;28;20064;-90
2022/09/10 10:21:35;;;;;;;2.75;0.88;;;;;;;19.87;100.00;100258.97;6281309;28;20048;-89
2022/09/10 10:24:37;;;;;;;2.13;1.00;;;;;;;19.89;100.00;100259.59;6267214;28;20130;-91
2022/09/10 10:27:47;;;;;;;0.65;0.65;;;;;;;19.84;100.00;100254.09;6274956;28;20037;-91
2022/09/10 10:30:55;;;;;;;1.42;1.00;;;;;;;19.72;100.00;100256.41;6274386;28;20037;-90
2022/09/10 10:34:28;;;;;;;1.17;0.75;;;;;;;19.51;100.00;100246.69;6278532;28;20452;-90
2022/09/10 10:38:04;;;;;;;0.82;0.80;;;;;;;19.15;100.00;100246.69;6266016;28;20075;-91
2022/09/10 10:41:28;;;;;;;1.67;1.00;;;;;;;18.92;100.00;100246.81;6275824;28;20044;-91
2022/09/10 10:45:15;;;;;;;1.45;0.90;;;;;;;18.81;100.00;100249.91;6278518;28;20040;-90
2022/09/10 10:49:04;;;;;;;3.60;0.93;;;;;;;18.76;100.00;100249.59;6232372;28;20054;-90
2022/09/10 10:52:18;;;;;;;3.00;1.23;;;;;;;18.84;100.00;100246.91;6136269;28;20236;-91
2022/09/10 10:55:37;;;;;;;2.03;1.20;;;;;;;19.08;100.00;100246.63;6133040;28;20170;-91
2022/09/10 10:58:54;;;;;;;1.52;0.95;;;;;;;19.42;100.00;100253.03;6137052;29;20543;-91
2022/09/10 11:02:32;;;;;;;2.25;1.08;;;;;;;19.89;100.00;100246.44;6127542;28;20302;-91
2022/09/10 11:05:48;;;;;;;2.63;1.10;;;;;;;20.42;100.00;100249.50;6134357;29;20417;-91
2022/09/10 11:09:24;;;;;;;2.75;1.00;;;;;;;20.81;100.00;100247.31;6136007;29;20051;-91
2022/09/10 11:12:34;;;;;;;0.98;0.88;;;;;;;21.08;100.00;100240.34;6136514;29;20266;-91
2022/09/10 11:15:40;;;;;;;;;;;;;;;21.52;98.29;100240.91;6136017;29;20059;-91
2022/09/10 11:18:54;;;;;;;2.17;1.10;;;;;;;21.58;97.67;100240.91;6133537;29;19933;-91
2022/09/10 11:22:20;;;;;;;1.42;0.90;;;;;;;21.37;95.37;100231.31;6165018;28;20061;-91
2022/09/10 11:25:36;;;;;;;2.55;1.10;;;;;;;21.37;94.37;100233.16;6263043;28;20529;-91
2022/09/10 11:29:10;;;;;;;1.85;1.08;;;;;;;21.25;90.13;100227.63;6281358;28;20039;-91
2022/09/10 11:32:27;;;;;;;3.15;1.00;;;;;;;21.08;97.60;100227.19;6270744;28;20130;-90
2022/09/10 11:35:36;;;;;;;1.35;0.93;;;;;;;20.93;96.67;100221.25;6270939;28;20526;-91
2022/09/10 11:38:43;;;;;;;1.35;0.93;;;;;;;20.73;97.52;100226.44;6275314;28;20518;-91
2022/09/10 11:41:49;;;;;;;1.65;1.00;;;;;;;20.65;97.58;100224.78;6278954;28;20044;-91
2022/09/10 11:45:16;;;;;;;1.23;1.02;;;;;;;20.42;97.48;100220.56;6273429;28;20041;-91
2022/09/10 11:48:41;;;;;;;3.13;0.90;;;;;;;20.01;95.43;100220.47;6277388;28;20044;-91
2022/09/10 11:51:44;;;;;;;2.15;1.40;;;;;;;19.74;100.00;100222.06;6267180;28;20044;-91
2022/09/10 11:54:46;;;;;;;2.88;1.30;;;;;;;19.52;100.00;100227.28;6272847;28;20036;-90
2022/09/10 11:58:14;;;;;;;4.32;1.65;;;;;;;19.58;100.00;100223.94;6289021;28;20095;-91
2022/09/10 12:01:54;;;;;;;4.00;1.50;;;;;;;20.12;98.99;100222.59;6285643;28;20486;-91
2022/09/10 12:05:09;;;;;;;2.30;1.45;;;;;;;20.74;97.23;100212.25;6279729;28;20090;-92
2022/09/10 12:08:39;;;;;;;3.90;1.70;;;;;;;21.26;94.10;100221.34;6267034;28;20068;-91
2022/09/10 12:12:01;;;;;;;1.45;1.33;;;;;;;21.84;87.63;100215.59;6273516;28;20052;-91
2022/09/10 12:15:21;;;;;;;2.45;1.33;;;;;;;22.28;82.20;100212.31;6276298;28;20409;-91
2022/09/10 12:18:40;;;;;;;1.38;1.05;;;;;;;22.91;83.19;100211.75;6272929;28;20044;-91
2022/09/10 12:21:50;;;;;;;2.40;1.05;;;;;;;23.00;77.06;100217.63;6293080;28;20555;-91
2022/09/10 12:25:15;;;;;;;1.65;1.27;;;;;;;22.93;80.36;100220.28;6271650;28;20036;-91
2022/09/10 12:28:48;;;;;;;2.33;1.38;;;;;;;22.91;79.36;100222.31;6201897;28;20049;-90
2022/09/10 12:32:20;;;;;;;1.85;1.10;;;;;;;22.70;78.65;100220.75;6225380;28;20050;-91
2022/09/10 12:35:37;;;;;;;1.92;1.58;;;;;;;22.63;79.82;100227.06;6231042;28;20053;-91
2022/09/10 12:38:57;;;;;;;1.30;1.00;;;;;;;22.51;79.38;100219.00;6230044;28;20130;-91
2022/09/10 12:42:21;;;;;;;1.30;1.20;;;;;;;22.48;82.26;100225.47;6226653;28;20052;-91
2022/09/10 12:46:02;;;;;;;2.40;1.30;;;;;;;22.30;80.37;100217.41;6224929;28;20594;-91
2022/09/10 12:49:11;;;;;;;3.92;1.27;;;;;;;22.09;79.60;100211.34;6232603;28;20053;-91
2022/09/10 12:52:44;;;;;;;1.38;1.27;;;;;;;21.80;79.78;100220.47;6209465;28;20248;-91
2022/09/10 12:56:01;;;;;;;1.10;1.00;;;;;;;21.62;78.68;100213.16;6224632;28;20061;-91
2022/09/10 12:59:30;;;;;;;1.42;1.10;;;;;;;21.91;80.14;100213.75;6231884;28;20068;-91
2022/09/10 13:02:36;;;;;;;2.50;1.38;;;;;;;22.50;74.89;100215.53;6212952;28;20337;-90
2022/09/10 13:05:45;;;;;;;0.95;0.95;;;;;;;23.26;70.81;100215.88;6256319;28;20609;-91
2022/09/10 13:08:47;;;;;;;1.98;0.93;;;;;;;23.72;67.72;100207.63;6283983;28;20098;-90
2022/09/10 13:11:53;;;;;;;2.15;1.17;;;;;;;24.25;64.46;100203.75;6277317;28;20322;-90
2022/09/10 13:14:56;;;;;;;1.27;1.00;;;;;;;24.88;63.88;100203.44;6297806;28;20032;-90
2022/09/10 13:17:58;;;;;;;2.70;1.30;;;;;;;25.19;62.37;100201.63;6272647;28;20406;-90
2022/09/10 13:21:22;;;;;;;1.10;0.80;;;;;;;25.20;60.54;100199.81;6268295;28;20044;-90
2022/09/10 13:24:34;;;;;;;1.05;0.95;;;;;;;25.23;62.78;100202.00;6266914;28;20135;-93
2022/09/10 13:27:38;;;;;;;1.30;1.20;;;;;;;24.78;62.86;100186.47;6271674;28;20051;-91
2022/09/10 13:30:41;;;;;;;1.58;0.90;;;;;;;24.00;64.34;100193.16;6277432;28;20683;-91
2022/09/10 13:33:51;;;;;;;1.35;0.95;;;;;;;23.20;67.56;100202.50;6270154;28;20454;-90
2022/09/10 13:37:10;;;;;;;1.73;1.00;;;;;;;22.48;74.97;100204.38;6272741;28;20044;-89
2022/09/10 13:40:37;;;;;;;1.10;0.70;;;;;;;21.92;74.22;100208.28;6269135;28;21044;-90
2022/09/10 13:44:03;;;;;;;1.17;0.85;;;;;;;21.47;79.71;100202.81;6270930;28;20485;-90
2022/09/10 13:47:14;;;;;;;1.48;0.82;;;;;;;21.28;78.85;100208.81;6267878;28;20119;-90
2022/09/10 13:50:21;;;;;;;1.67;1.58;;;;;;;21.18;80.64;100203.13;6272873;28;20526;-89
2022/09/10 13:53:28;;;;;;;1.30;0.90;;;;;;;21.25;79.76;100196.84;6272651;28;20053;-89
2022/09/10 13:56:34;;;;;;;1.10;0.93;;;;;;;21.45;82.49;100196.91;6273144;28;20049;-89
2022/09/10 13:59:39;;;;;;;1.05;0.70;;;;;;;21.72;79.58;100195.13;6268119;28;20049;-89
2022/09/10 14:02:57;;;;;;;1.15;0.80;;;;;;;22.03;75.44;100196.31;6271006;28;20048;-89
2022/09/10 14:06:06;;;;;;;4.00;1.05;;;;;;;22.33;72.96;100203.81;6257867;28;20052;-90
2022/09/10 14:09:10;;;;;;;1.17;1.10;;;;;;;22.58;72.41;100204.78;6277319;28;20095;-90
2022/09/10 14:12:14;;;;;;;1.30;1.13;;;;;;;22.62;70.73;100212.28;6259985;28;20052;-90
2022/09/10 14:15:21;;;;;;;1.30;0.95;;;;;;;22.69;74.21;100213.06;6278000;28;20037;-89
2022/09/10 14:18:30;;;;;;;1.30;1.20;;;;;;;22.72;74.49;100215.28;6277963;28;20045;-89
2022/09/10 14:21:33;;;;;;;1.40;1.30;;;;;;;22.72;77.63;100212.63;6283602;28;20044;-90
2022/09/10 14:24:34;;;;;;;1.65;1.40;;;;;;;22.71;75.81;100208.38;6272458;28;20068;-89
2022/09/10 14:27:37;;;;;;;1.90;1.50;;;;;;;22.60;73.68;100209.03;6272931;28;20033;-89
2022/09/10 14:30:40;;;;;;;2.22;1.20;;;;;;;22.43;75.51;100206.03;6280565;28;20052;-89
2022/09/10 14:33:43;;;;;;;1.35;1.20;;;;;;;22.38;75.63;100206.63;6275572;28;20052;-89
2022/09/10 14:36:48;;;;;;;2.67;1.35;;;;;;;22.24;75.02;100208.50;6273086;28;20040;-89